createdAt,value
2023-01-09T00:04:00.776Z,100.00
2023-01-09T00:08:52.434Z,100.00
2023-01-09T00:13:44.380Z,100.00
2023-01-09T00:18:37.461Z,100.00
2023-01-09T00:23:29.190Z,100.00
2023-01-09T00:28:20.889Z,100.00
2023-01-09T00:33:13.175Z,100.00
2023-01-09T00:38:04.960Z,100.00
2023-01-09T00:42:57.908Z,100.00
2023-01-09T00:47:52.892Z,100.00
2023-01-09T00:52:47.103Z,100.00
2023-01-09T00:57:39.127Z,100.00
2023-01-09T01:02:31.029Z,100.00
2023-01-09T01:07:43.341Z,100.00
2023-01-09T01:12:35.053Z,100.00
2023-01-09T01:17:26.697Z,100.00
2023-01-09T01:22:18.506Z,100.00
2023-01-09T01:27:10.455Z,100.00
2023-01-09T01:32:02.116Z,100.00
2023-01-09T01:36:54.046Z,100.00
2023-01-09T01:41:45.677Z,100.00
2023-01-09T01:46:37.361Z,100.00
2023-01-09T01:51:32.012Z,100.00
2023-01-09T01:56:30.560Z,100.00
2023-01-09T02:01:24.770Z,100.00
2023-01-09T02:06:16.641Z,100.00
2023-01-09T02:11:09.007Z,100.00
2023-01-09T02:16:03.604Z,100.00
2023-01-09T02:21:00.720Z,100.00
2023-01-09T02:26:13.476Z,100.00
2023-01-09T02:31:15.502Z,100.00
2023-01-09T02:36:29.145Z,100.00
2023-01-09T02:41:53.075Z,100.00
2023-01-09T02:46:44.870Z,100.00
2023-01-09T02:51:36.642Z,100.00
2023-01-09T02:56:37.350Z,100.00
2023-01-09T03:01:52.416Z,100.00
2023-01-09T03:06:54.976Z,100.00
2023-01-09T03:12:01.126Z,100.00
2023-01-09T03:17:02.637Z,100.00
2023-01-09T03:21:56.395Z,100.00
2023-01-09T03:26:48.214Z,100.00
2023-01-09T03:31:39.970Z,100.00
2023-01-09T03:36:31.716Z,100.00
2023-01-09T03:41:23.478Z,100.00
2023-01-09T03:46:18.075Z,100.00
2023-01-09T03:51:10.320Z,100.00
2023-01-09T03:56:01.976Z,100.00
2023-01-09T04:00:59.835Z,100.00
2023-01-09T04:05:51.698Z,100.00
2023-01-09T04:10:47.672Z,100.00
2023-01-09T04:15:39.468Z,100.00
2023-01-09T04:20:32.052Z,100.00
2023-01-09T04:25:23.755Z,100.00
2023-01-09T04:30:15.462Z,100.00
2023-01-09T04:35:07.917Z,100.00
2023-01-09T04:39:59.707Z,100.00
2023-01-09T04:44:54.228Z,100.00
2023-01-09T04:49:45.898Z,100.00
2023-01-09T04:54:39.547Z,100.00
2023-01-09T04:59:31.323Z,100.00
2023-01-09T05:04:23.103Z,100.00
2023-01-09T05:09:14.756Z,100.00
2023-01-09T05:14:06.438Z,100.00
2023-01-09T05:18:58.387Z,100.00
2023-01-09T05:23:50.352Z,100.00
2023-01-09T05:28:42.097Z,100.00
2023-01-09T05:33:33.814Z,100.00
2023-01-09T05:38:25.618Z,100.00
2023-01-09T05:43:17.411Z,100.00
2023-01-09T05:48:09.086Z,100.00
2023-01-09T05:53:00.783Z,100.00
2023-01-09T05:57:52.437Z,100.00
2023-01-09T06:02:44.169Z,100.00
2023-01-09T06:07:39.361Z,100.00
2023-01-09T06:12:31.147Z,100.00
2023-01-09T06:17:22.883Z,100.00
2023-01-09T06:22:14.529Z,100.00
2023-01-09T06:27:06.813Z,100.00
2023-01-09T06:31:58.623Z,100.00
2023-01-09T06:36:50.234Z,100.00
2023-01-09T06:41:41.983Z,100.00
2023-01-09T06:46:33.662Z,100.00
2023-01-09T06:51:25.446Z,100.00
2023-01-09T06:56:17.153Z,100.00
2023-01-09T07:01:09.410Z,100.00
2023-01-09T07:06:01.139Z,100.00
2023-01-09T07:10:52.852Z,100.00
2023-01-09T07:15:44.895Z,100.00
2023-01-09T07:20:39.816Z,100.00
2023-01-09T07:25:31.503Z,100.00
2023-01-09T07:30:23.385Z,100.00
2023-01-09T07:35:15.199Z,100.00
2023-01-09T07:40:07.687Z,100.00
2023-01-09T07:44:59.379Z,100.00
2023-01-09T07:49:51.103Z,100.00
2023-01-09T07:54:43.000Z,100.00
2023-01-09T07:59:34.733Z,100.00
2023-01-09T08:04:26.431Z,100.00
2023-01-09T08:09:18.827Z,100.00
2023-01-09T08:14:10.431Z,100.00
2023-01-09T08:19:02.077Z,100.00
2023-01-09T08:23:53.808Z,100.00
2023-01-09T08:28:46.264Z,100.00
2023-01-09T08:33:40.408Z,100.00
2023-01-09T08:38:32.274Z,100.00
2023-01-09T08:43:42.577Z,100.00
2023-01-09T08:48:34.289Z,100.00
2023-01-09T08:53:26.025Z,100.00
2023-01-09T08:58:17.791Z,100.00
2023-01-09T09:03:11.829Z,100.00
2023-01-09T09:08:04.329Z,100.00
2023-01-09T09:12:58.350Z,100.00
2023-01-09T09:18:04.358Z,100.00
2023-01-09T09:22:56.217Z,100.00
2023-01-09T09:27:48.070Z,100.00
2023-01-09T09:32:40.552Z,100.00
2023-01-09T09:37:32.564Z,100.00
2023-01-09T09:42:48.411Z,100.00
2023-01-09T09:47:45.883Z,100.00
2023-01-09T09:52:59.910Z,98.80
2023-01-09T09:57:52.337Z,97.63
2023-01-09T10:03:06.717Z,94.73
2023-01-09T10:08:15.781Z,93.28
2023-01-09T10:13:27.770Z,91.50
2023-01-09T10:18:42.823Z,90.41
2023-01-09T10:23:54.620Z,88.90
2023-01-09T10:29:38.724Z,86.45
2023-01-09T10:34:46.972Z,83.44
2023-01-09T10:39:44.137Z,82.01
2023-01-09T10:45:03.449Z,82.64
2023-01-09T10:49:56.921Z,82.67
2023-01-09T10:54:55.528Z,82.42
2023-01-09T10:59:47.212Z,84.34
2023-01-09T11:04:40.314Z,85.24
2023-01-09T11:09:55.296Z,82.62
2023-01-09T11:14:47.007Z,79.76
2023-01-09T11:19:38.893Z,78.87
2023-01-09T11:24:31.817Z,78.73
2023-01-09T11:29:26.638Z,76.78
2023-01-09T11:34:21.098Z,75.19
2023-01-09T11:39:25.495Z,77.86
2023-01-09T11:44:17.336Z,75.49
2023-01-09T11:49:15.329Z,77.76
2023-01-09T11:54:16.368Z,77.27
2023-01-09T11:59:21.334Z,77.24
2023-01-09T12:04:25.397Z,75.42
2023-01-09T12:09:28.296Z,74.73
2023-01-09T12:14:19.875Z,76.02
2023-01-09T12:19:23.703Z,76.30
2023-01-09T12:24:24.352Z,74.53
2023-01-09T12:29:19.038Z,75.64
2023-01-09T12:34:28.887Z,76.13
2023-01-09T12:39:54.478Z,74.89
2023-01-09T12:45:07.341Z,74.77
2023-01-09T12:50:07.767Z,75.04
2023-01-09T12:55:30.349Z,74.66
2023-01-09T13:00:22.048Z,75.11
2023-01-09T13:05:24.505Z,76.31
2023-01-09T13:10:40.945Z,75.07
2023-01-09T13:15:40.116Z,76.83
2023-01-09T13:21:07.265Z,76.86
2023-01-09T13:26:04.411Z,77.34
2023-01-09T13:31:08.830Z,77.93
2023-01-09T13:36:03.483Z,77.86
2023-01-09T13:41:35.662Z,77.04
2023-01-09T13:46:45.578Z,78.27
2023-01-09T13:51:58.345Z,77.90
2023-01-09T13:57:17.880Z,77.97
2023-01-09T14:02:35.368Z,76.33
2023-01-09T14:07:33.050Z,77.05
2023-01-09T14:12:26.547Z,77.06
2023-01-09T14:17:34.706Z,77.79
2023-01-09T14:22:42.344Z,76.66
2023-01-09T14:27:54.885Z,77.43
2023-01-09T14:32:57.866Z,77.44
2023-01-09T14:38:06.510Z,78.46
2023-01-09T14:43:05.109Z,78.58
2023-01-09T14:48:01.768Z,79.16
2023-01-09T14:52:57.896Z,79.82
2023-01-09T14:57:54.693Z,81.16
2023-01-09T15:02:47.455Z,81.08
2023-01-09T15:08:05.482Z,80.76
2023-01-09T15:13:00.751Z,80.81
2023-01-09T15:18:01.749Z,80.73
2023-01-09T15:22:54.918Z,80.45
2023-01-09T15:28:00.491Z,80.80
2023-01-09T15:32:52.807Z,82.25
2023-01-09T15:37:45.051Z,82.06
2023-01-09T15:42:58.201Z,81.99
2023-01-09T15:47:50.244Z,82.70
2023-01-09T15:52:42.507Z,82.97
2023-01-09T15:57:35.601Z,83.57
2023-01-09T16:02:45.934Z,83.36
2023-01-09T16:07:53.054Z,83.43
2023-01-09T16:12:44.707Z,83.71
2023-01-09T16:17:36.579Z,84.36
2023-01-09T16:22:33.304Z,85.35
2023-01-09T16:27:28.819Z,86.65
2023-01-09T16:32:32.939Z,86.78
2023-01-09T16:37:25.721Z,87.17
2023-01-09T16:42:35.931Z,87.27
2023-01-09T16:47:27.610Z,87.69
2023-01-09T16:52:19.331Z,86.33
2023-01-09T16:57:17.991Z,87.11
2023-01-09T17:02:18.096Z,86.12
2023-01-09T17:07:14.442Z,86.13
2023-01-09T17:12:06.484Z,86.04
2023-01-09T17:16:58.585Z,85.51
2023-01-09T17:21:50.419Z,85.20
2023-01-09T17:27:09.592Z,83.68
2023-01-09T17:32:01.404Z,83.90
2023-01-09T17:36:55.649Z,83.69
2023-01-09T17:41:47.399Z,83.85
2023-01-09T17:46:42.025Z,84.15
2023-01-09T17:51:33.790Z,84.97
2023-01-09T17:56:30.664Z,85.02
2023-01-09T18:01:22.533Z,85.26
2023-01-09T18:06:15.898Z,85.40
2023-01-09T18:11:10.925Z,85.71
2023-01-09T18:16:02.639Z,85.74
2023-01-09T18:20:54.449Z,86.59
2023-01-09T18:25:46.470Z,87.09
2023-01-09T18:30:38.331Z,87.43
2023-01-09T18:35:30.922Z,86.97
2023-01-09T18:40:22.756Z,87.33
2023-01-09T18:45:14.509Z,86.93
2023-01-09T18:50:06.639Z,87.23
2023-01-09T18:54:58.245Z,87.11
2023-01-09T18:59:49.996Z,87.34
2023-01-09T19:04:41.743Z,87.61
2023-01-09T19:09:33.607Z,87.13
2023-01-09T19:14:25.222Z,86.63
2023-01-09T19:19:17.327Z,87.02
2023-01-09T19:24:09.073Z,87.00
2023-01-09T19:29:01.071Z,87.48
2023-01-09T19:33:53.246Z,88.50
2023-01-09T19:38:45.108Z,88.90
2023-01-09T19:43:37.453Z,89.75
2023-01-09T19:48:30.647Z,89.54
2023-01-09T19:53:22.296Z,90.29
2023-01-09T19:58:13.988Z,90.70
2023-01-09T20:03:05.690Z,91.27
2023-01-09T20:07:57.655Z,91.44
2023-01-09T20:12:49.608Z,92.14
2023-01-09T20:17:42.260Z,93.65
2023-01-09T20:22:34.381Z,94.56
2023-01-09T20:27:26.107Z,94.30
2023-01-09T20:32:18.803Z,94.41
2023-01-09T20:37:11.134Z,94.86
2023-01-09T20:42:03.036Z,95.53
2023-01-09T20:46:54.779Z,96.37
2023-01-09T20:51:52.047Z,96.96
2023-01-09T20:56:44.060Z,96.43
2023-01-09T21:01:35.850Z,96.76
2023-01-09T21:06:28.721Z,96.50
2023-01-09T21:11:21.933Z,96.71
2023-01-09T21:16:15.999Z,96.59
2023-01-09T21:21:10.827Z,96.77
2023-01-09T21:26:08.991Z,97.29
2023-01-09T21:31:00.719Z,97.24
2023-01-09T21:35:57.071Z,97.24
2023-01-09T21:40:50.876Z,97.46
2023-01-09T21:46:01.271Z,97.30
2023-01-09T21:50:52.971Z,98.22
2023-01-09T21:55:44.828Z,98.96
2023-01-09T22:00:36.478Z,98.93
2023-01-09T22:05:28.185Z,99.24
2023-01-09T22:10:19.865Z,99.07
2023-01-09T22:15:11.605Z,98.41
2023-01-09T22:20:03.460Z,98.08
2023-01-09T22:24:55.234Z,97.68
2023-01-09T22:29:46.943Z,98.55
2023-01-09T22:34:38.822Z,99.01
2023-01-09T22:39:30.565Z,98.90
2023-01-09T22:44:22.377Z,99.26
2023-01-09T22:49:14.272Z,98.85
2023-01-09T22:54:06.387Z,98.76
2023-01-09T22:58:59.651Z,99.31
2023-01-09T23:03:51.432Z,99.25
2023-01-09T23:08:43.449Z,98.93
2023-01-09T23:13:35.746Z,99.45
2023-01-09T23:18:27.847Z,100.00
2023-01-09T23:23:21.115Z,100.00
2023-01-09T23:28:12.782Z,100.00
2023-01-09T23:33:04.427Z,100.00
2023-01-09T23:37:55.999Z,100.00
2023-01-09T23:43:06.230Z,100.00
2023-01-09T23:47:57.884Z,100.00
2023-01-09T23:52:49.673Z,100.00
2023-01-09T23:57:41.301Z,99.98
